Time;durP1;ratioP1;P1;durP2;ratioP2;P2;SDS_P1;SDS_P2;PMS_P1;PMS_P2;Temp;Humidity;BMP_temperature;BMP_pressure;BME280_temperature;BME280_humidity;BME280_pressure;Samples;Min_cycle;Max_cycle;Signal;HPM_P1;HPM_P2
2020/12/25 00:02:20;;;;;;;0.00;0.00;;;;;;;;;;4970339;28;20482;-72
2020/12/25 00:04:49;;;;;;;0.00;0.00;;;;;;;;;;4972194;28;20055;-71
2020/12/25 00:07:16;;;;;;;0.00;0.00;;;;;;;;;;4973355;28;20099;-71
2020/12/25 00:09:42;;;;;;;0.00;0.00;;;;;;;;;;4968725;28;20046;-71
2020/12/25 00:12:10;;;;;;;0.00;0.00;;;;;;;;;;4984314;28;20038;-71
2020/12/25 00:14:38;;;;;;;0.00;0.00;;;;;;;;;;4983019;28;20199;-71
2020/12/25 00:17:07;;;;;;;0.00;0.00;;;;;;;;;;4967075;28;20084;-71
2020/12/25 00:19:33;;;;;;;0.00;0.00;;;;;;;;;;4972939;28;20129;-71
2020/12/25 00:22:04;;;;;;;0.00;0.00;;;;;;;;;;4985731;28;20505;-71
2020/12/25 00:24:35;;;;;;;0.00;0.00;;;;;;;;;;4974736;28;20108;-72
2020/12/25 00:27:04;;;;;;;0.00;0.00;;;;;;;;;;4988561;28;20077;-71
2020/12/25 00:29:30;;;;;;;0.00;0.00;;;;;;;;;;4968520;28;20042;-71
2020/12/25 00:31:56;;;;;;;0.00;0.00;;;;;;;;;;4985230;28;20030;-71
2020/12/25 00:34:21;;;;;;;0.00;0.00;;;;;;;;;;4987168;28;20068;-72
2020/12/25 00:36:49;;;;;;;0.00;0.00;;;;;;;;;;4986245;28;20034;-71
2020/12/25 00:39:18;;;;;;;0.00;0.00;;;;;;;;;;4983103;28;20079;-71
2020/12/25 00:41:47;;;;;;;0.00;0.00;;;;;;;;;;4986327;28;20056;-71
2020/12/25 00:44:18;;;;;;;0.00;0.00;;;;;;;;;;4984914;28;20429;-71
2020/12/25 00:46:51;;;;;;;0.00;0.00;;;;;;;;;;4969182;28;20072;-71
2020/12/25 00:49:17;;;;;;;0.00;0.00;;;;;;;;;;4984856;28;20156;-71
2020/12/25 00:51:43;;;;;;;0.00;0.00;;;;;;;;;;4966151;28;20072;-71
2020/12/25 00:54:13;;;;;;;0.00;0.00;;;;;;;;;;4971259;28;20096;-72
2020/12/25 00:56:42;;;;;;;0.00;0.00;;;;;;;;;;4973305;28;20045;-71
2020/12/25 00:59:10;;;;;;;0.00;0.00;;;;;;;;;;4987341;28;20034;-69
2020/12/25 01:01:37;;;;;;;0.00;0.00;;;;;;;;;;4988240;28;20037;-72
2020/12/25 01:04:05;;;;;;;0.00;0.00;;;;;;;;;;4974633;28;20806;-72
2020/12/25 01:06:39;;;;;;;0.00;0.00;;;;;;;;;;4971429;28;20076;-72
2020/12/25 01:09:04;;;;;;;0.00;0.00;;;;;;;;;;4979090;28;20034;-72
2020/12/25 01:11:29;;;;;;;0.00;0.00;;;;;;;;;;4975540;28;20032;-71
2020/12/25 01:14:00;;;;;;;0.00;0.00;;;;;;;;;;4998146;28;20044;-71
2020/12/25 01:16:28;;;;;;;0.00;0.00;;;;;;;;;;4998725;28;20145;-70
2020/12/25 01:18:56;;;;;;;0.00;0.00;;;;;;;;;;4996145;28;20069;-70
2020/12/25 01:21:21;;;;;;;0.00;0.00;;;;;;;;;;4990453;28;20461;-70
2020/12/25 01:23:52;;;;;;;1.50;1.40;;;;;;;;;;4969617;28;20552;-69
2020/12/25 01:26:20;;;;;;;0.00;0.00;;;;;;;;;;4988942;28;20073;-69
2020/12/25 01:28:48;;;;;;;0.00;0.00;;;;;;;;;;4989419;28;20470;-69
2020/12/25 01:31:16;;;;;;;0.00;0.00;;;;;;;;;;4970593;28;20049;-70
2020/12/25 01:33:42;;;;;;;0.00;0.00;;;;;;;;;;4976264;28;20065;-70
2020/12/25 01:36:07;;;;;;;0.00;0.00;;;;;;;;;;4986402;28;20028;-70
2020/12/25 01:38:35;;;;;;;0.00;0.00;;;;;;;;;;4973782;28;20126;-71
2020/12/25 01:41:03;;;;;;;0.00;0.00;;;;;;;;;;4989909;28;20506;-69
2020/12/25 01:43:29;;;;;;;0.00;0.00;;;;;;;;;;4988408;28;20415;-69
2020/12/25 01:46:00;;;;;;;0.00;0.00;;;;;;;;;;4973636;28;20041;-69
2020/12/25 01:48:28;;;;;;;0.00;0.00;;;;;;;;;;4983366;28;20129;-72
2020/12/25 01:50:56;;;;;;;0.00;0.00;;;;;;;;;;4986737;28;20045;-69
2020/12/25 01:53:22;;;;;;;0.00;0.00;;;;;;;;;;4983460;28;20030;-69
2020/12/25 01:55:48;;;;;;;0.00;0.00;;;;;;;;;;4984693;28;20477;-69
2020/12/25 01:58:16;;;;;;;0.00;0.00;;;;;;;;;;4970735;28;20118;-71
2020/12/25 02:00:42;;;;;;;0.00;0.00;;;;;;;;;;4985446;28;20026;-71
2020/12/25 02:03:07;;;;;;;0.00;0.00;;;;;;;;;;4985559;28;20111;-70
2020/12/25 02:05:33;;;;;;;0.00;0.00;;;;;;;;;;4988175;28;20034;-70
2020/12/25 02:08:00;;;;;;;0.00;0.00;;;;;;;;;;4956546;28;20154;-70
2020/12/25 02:10:26;;;;;;;0.00;0.00;;;;;;;;;;4955156;28;20034;-71
2020/12/25 02:12:52;;;;;;;0.00;0.00;;;;;;;;;;4985619;28;20022;-70
2020/12/25 02:15:19;;;;;;;0.00;0.00;;;;;;;;;;4971412;28;20235;-69
2020/12/25 02:17:50;;;;;;;0.00;0.00;;;;;;;;;;4984012;28;20052;-69
2020/12/25 02:20:18;;;;;;;0.00;0.00;;;;;;;;;;4986299;28;20555;-69
2020/12/25 02:22:46;;;;;;;0.00;0.00;;;;;;;;;;4972484;28;20639;-69
2020/12/25 02:25:12;;;;;;;0.00;0.00;;;;;;;;;;4969285;28;20137;-70
2020/12/25 02:27:40;;;;;;;0.00;0.00;;;;;;;;;;4984539;28;20096;-70
2020/12/25 02:30:06;;;;;;;0.00;0.00;;;;;;;;;;4985759;28;20046;-70
2020/12/25 02:32:35;;;;;;;0.00;0.00;;;;;;;;;;4970745;28;20099;-70
2020/12/25 02:35:08;;;;;;;0.00;0.00;;;;;;;;;;4985975;28;20037;-69
2020/12/25 02:37:39;;;;;;;0.00;0.00;;;;;;;;;;4985685;28;20498;-69
2020/12/25 02:40:10;;;;;;;0.20;0.20;;;;;;;;;;4972879;28;20480;-67
2020/12/25 02:42:38;;;;;;;0.00;0.00;;;;;;;;;;4972870;28;20042;-68
2020/12/25 02:45:10;;;;;;;0.00;0.00;;;;;;;;;;4983628;28;20034;-68
2020/12/25 02:47:41;;;;;;;0.00;0.00;;;;;;;;;;4984589;28;20057;-68
2020/12/25 02:50:06;;;;;;;0.00;0.00;;;;;;;;;;4985285;28;20046;-69
2020/12/25 02:52:34;;;;;;;0.00;0.00;;;;;;;;;;4953627;28;20521;-67
2020/12/25 02:55:04;;;;;;;0.00;0.00;;;;;;;;;;4973334;28;20049;-67
2020/12/25 02:57:32;;;;;;;0.05;0.05;;;;;;;;;;4967752;28;20033;-67
2020/12/25 02:59:58;;;;;;;0.00;0.00;;;;;;;;;;4966947;28;20111;-67
2020/12/25 03:02:25;;;;;;;0.00;0.00;;;;;;;;;;4984877;28;20021;-67
2020/12/25 03:04:52;;;;;;;0.00;0.00;;;;;;;;;;4983866;28;20034;-67
2020/12/25 03:07:21;;;;;;;0.00;0.00;;;;;;;;;;4985076;28;20448;-67
2020/12/25 03:09:46;;;;;;;0.00;0.00;;;;;;;;;;4984689;28;20026;-68
2020/12/25 03:12:14;;;;;;;0.00;0.00;;;;;;;;;;4985618;28;20266;-67
2020/12/25 03:14:41;;;;;;;0.00;0.00;;;;;;;;;;4967400;28;20034;-68
2020/12/25 03:17:12;;;;;;;0.00;0.00;;;;;;;;;;4966147;28;20448;-67
2020/12/25 03:20:05;;;;;;;0.00;0.00;;;;;;;;;;4979416;28;20398;-67
2020/12/25 03:22:34;;;;;;;0.00;0.00;;;;;;;;;;4984018;28;20482;-67
2020/12/25 03:24:59;;;;;;;0.00;0.00;;;;;;;;;;4982033;28;20099;-67
2020/12/25 03:27:25;;;;;;;0.00;0.00;;;;;;;;;;4983316;28;20409;-66
2020/12/25 03:29:54;;;;;;;0.00;0.00;;;;;;;;;;4971138;28;20474;-66
2020/12/25 03:32:24;;;;;;;0.00;0.00;;;;;;;;;;4985794;28;20068;-67
2020/12/25 03:34:50;;;;;;;0.00;0.00;;;;;;;;;;4969679;28;21965;-67
2020/12/25 03:37:16;;;;;;;0.00;0.00;;;;;;;;;;4981439;28;20018;-68
2020/12/25 03:39:44;;;;;;;0.00;0.00;;;;;;;;;;4964209;28;20087;-67
2020/12/25 03:42:11;;;;;;;0.00;0.00;;;;;;;;;;4984725;28;20947;-65
2020/12/25 03:44:39;;;;;;;0.00;0.00;;;;;;;;;;4956492;28;20037;-66
2020/12/25 03:47:05;;;;;;;0.00;0.00;;;;;;;;;;4970397;28;20030;-66
2020/12/25 03:49:31;;;;;;;0.00;0.00;;;;;;;;;;4983517;28;20076;-66
2020/12/25 03:51:57;;;;;;;0.00;0.00;;;;;;;;;;4984403;28;20044;-66
2020/12/25 03:54:23;;;;;;;0.00;0.00;;;;;;;;;;4984077;28;20045;-66
2020/12/25 03:56:51;;;;;;;0.00;0.00;;;;;;;;;;4982410;28;20661;-66
2020/12/25 03:59:19;;;;;;;0.00;0.00;;;;;;;;;;4985131;28;20057;-65
2020/12/25 04:01:47;;;;;;;0.00;0.00;;;;;;;;;;4985305;28;20026;-64
2020/12/25 04:04:12;;;;;;;0.00;0.00;;;;;;;;;;4971619;28;20022;-63
2020/12/25 04:06:38;;;;;;;0.20;0.20;;;;;;;;;;4985049;28;20041;-63
2020/12/25 04:09:05;;;;;;;0.00;0.00;;;;;;;;;;4969051;28;20029;-65
2020/12/25 04:11:31;;;;;;;0.00;0.00;;;;;;;;;;4970134;28;20042;-63
2020/12/25 04:17:34;;;;;;;0.00;0.00;;;;;;;;;;4984115;28;20265;-67
2020/12/25 04:20:00;;;;;;;0.00;0.00;;;;;;;;;;4984805;28;20064;-64
2020/12/25 04:22:26;;;;;;;0.00;0.00;;;;;;;;;;4966639;28;20489;-68
2020/12/25 04:24:54;;;;;;;0.00;0.00;;;;;;;;;;4982628;28;20042;-67
2020/12/25 04:27:20;;;;;;;0.00;0.00;;;;;;;;;;4982318;28;20123;-66
2020/12/25 04:29:50;;;;;;;0.00;0.00;;;;;;;;;;4982578;28;20489;-67
2020/12/25 04:32:16;;;;;;;0.00;0.00;;;;;;;;;;4985023;28;20041;-66
2020/12/25 04:34:45;;;;;;;0.00;0.00;;;;;;;;;;4971769;28;20096;-67
2020/12/25 04:37:15;;;;;;;0.00;0.00;;;;;;;;;;4982874;28;20037;-67
2020/12/25 04:39:41;;;;;;;0.00;0.00;;;;;;;;;;4965898;28;20040;-66
2020/12/25 04:42:09;;;;;;;0.00;0.00;;;;;;;;;;4987761;28;20119;-66
2020/12/25 04:44:35;;;;;;;0.00;0.00;;;;;;;;;;4974171;28;20293;-67
2020/12/25 04:47:13;;;;;;;0.00;0.00;;;;;;;;;;4989318;28;20068;-66
2020/12/25 04:49:40;;;;;;;0.00;0.00;;;;;;;;;;4989192;28;20080;-67
2020/12/25 04:52:08;;;;;;;0.00;0.00;;;;;;;;;;4973014;28;20076;-67
2020/12/25 04:54:34;;;;;;;0.00;0.00;;;;;;;;;;4971098;28;20723;-66
2020/12/25 04:57:02;;;;;;;0.85;0.55;;;;;;;;;;4986288;28;20022;-67
2020/12/25 04:59:31;;;;;;;0.00;0.00;;;;;;;;;;4987263;28;20121;-67
2020/12/25 05:02:01;;;;;;;0.00;0.00;;;;;;;;;;4984291;28;20038;-68
2020/12/25 05:04:34;;;;;;;0.00;0.00;;;;;;;;;;4987565;28;20485;-67
2020/12/25 05:07:01;;;;;;;0.00;0.00;;;;;;;;;;4986904;28;20568;-67
2020/12/25 05:09:31;;;;;;;0.00;0.00;;;;;;;;;;4970875;28;20030;-68
2020/12/25 05:11:59;;;;;;;0.00;0.00;;;;;;;;;;4988396;28;20040;-68
2020/12/25 05:14:27;;;;;;;0.00;0.00;;;;;;;;;;4987831;28;20804;-67
2020/12/25 05:16:57;;;;;;;0.00;0.00;;;;;;;;;;4986500;28;20040;-68
2020/12/25 05:19:28;;;;;;;0.00;0.00;;;;;;;;;;4987984;28;20124;-68
2020/12/25 05:21:58;;;;;;;0.00;0.00;;;;;;;;;;4986973;28;20053;-68
2020/12/25 05:24:26;;;;;;;0.00;0.00;;;;;;;;;;4989860;28;21709;-68
2020/12/25 05:26:56;;;;;;;0.00;0.00;;;;;;;;;;4987858;28;20054;-66
2020/12/25 05:29:26;;;;;;;0.00;0.00;;;;;;;;;;4987766;28;20581;-68
2020/12/25 05:32:00;;;;;;;0.00;0.00;;;;;;;;;;4974538;28;20066;-68
2020/12/25 05:34:56;;;;;;;0.00;0.00;;;;;;;;;;4971940;28;20038;-67
2020/12/25 05:37:36;;;;;;;0.00;0.00;;;;;;;;;;4985994;28;21500;-67
2020/12/25 05:40:03;;;;;;;0.00;0.00;;;;;;;;;;4971713;28;20409;-67
2020/12/25 05:42:36;;;;;;;0.00;0.00;;;;;;;;;;4971737;28;20835;-68
2020/12/25 05:45:01;;;;;;;0.00;0.00;;;;;;;;;;4987481;28;20037;-68
2020/12/25 05:47:28;;;;;;;0.00;0.00;;;;;;;;;;4988968;28;20096;-67
2020/12/25 05:49:53;;;;;;;0.00;0.00;;;;;;;;;;4989177;28;20116;-68
2020/12/25 05:52:21;;;;;;;0.00;0.00;;;;;;;;;;4964967;28;20029;-67
2020/12/25 05:54:48;;;;;;;0.00;0.00;;;;;;;;;;4986380;28;20057;-68
2020/12/25 05:57:14;;;;;;;0.00;0.00;;;;;;;;;;4989406;28;20626;-69
2020/12/25 05:59:44;;;;;;;0.00;0.00;;;;;;;;;;4983472;28;20065;-68
2020/12/25 06:02:11;;;;;;;0.00;0.00;;;;;;;;;;4989437;28;20034;-68
2020/12/25 06:04:39;;;;;;;0.00;0.00;;;;;;;;;;4972512;28;20445;-68
2020/12/25 06:07:07;;;;;;;0.00;0.00;;;;;;;;;;4973235;28;20065;-68
2020/12/25 06:09:37;;;;;;;0.00;0.00;;;;;;;;;;4987026;28;20208;-68
2020/12/25 06:12:03;;;;;;;0.00;0.00;;;;;;;;;;4986059;28;20378;-68
2020/12/25 06:14:30;;;;;;;0.00;0.00;;;;;;;;;;4983359;28;20205;-68
2020/12/25 06:16:56;;;;;;;0.00;0.00;;;;;;;;;;4986223;28;20030;-67
2020/12/25 06:19:30;;;;;;;0.00;0.00;;;;;;;;;;4972067;28;20726;-67
2020/12/25 06:21:58;;;;;;;0.00;0.00;;;;;;;;;;4983709;28;20532;-67
2020/12/25 06:24:31;;;;;;;0.00;0.00;;;;;;;;;;4984900;28;21982;-68
2020/12/25 06:27:03;;;;;;;0.00;0.00;;;;;;;;;;4985371;28;20041;-68
2020/12/25 06:29:32;;;;;;;0.00;0.00;;;;;;;;;;4968838;28;20029;-68
2020/12/25 06:31:58;;;;;;;0.00;0.00;;;;;;;;;;4957114;28;20699;-68
2020/12/25 06:34:47;;;;;;;0.10;0.10;;;;;;;;;;4982922;28;20187;-68
2020/12/25 06:37:16;;;;;;;0.00;0.00;;;;;;;;;;4985957;28;20034;-68
2020/12/25 06:39:54;;;;;;;0.00;0.00;;;;;;;;;;4969486;28;20362;-68
2020/12/25 06:42:35;;;;;;;0.00;0.00;;;;;;;;;;4986265;28;20563;-68
2020/12/25 06:45:02;;;;;;;0.00;0.00;;;;;;;;;;4983958;28;20682;-68
2020/12/25 06:47:32;;;;;;;0.00;0.00;;;;;;;;;;4969469;28;20042;-68
2020/12/25 06:49:57;;;;;;;0.00;0.00;;;;;;;;;;4966757;28;20038;-68
2020/12/25 06:52:32;;;;;;;0.00;0.00;;;;;;;;;;4954590;28;20409;-68
2020/12/25 06:54:58;;;;;;;0.00;0.00;;;;;;;;;;4986330;28;20025;-68
2020/12/25 06:57:32;;;;;;;0.00;0.00;;;;;;;;;;4971311;28;20041;-68
2020/12/25 07:00:04;;;;;;;0.00;0.00;;;;;;;;;;4967675;28;20432;-68
2020/12/25 07:02:31;;;;;;;0.00;0.00;;;;;;;;;;4983464;28;20045;-68
2020/12/25 07:05:02;;;;;;;0.00;0.00;;;;;;;;;;4983683;28;20882;-65
2020/12/25 07:07:33;;;;;;;0.00;0.00;;;;;;;;;;4969317;28;20342;-67
2020/12/25 07:10:17;;;;;;;0.00;0.00;;;;;;;;;;4965269;28;20033;-67
2020/12/25 07:12:45;;;;;;;0.00;0.00;;;;;;;;;;4972263;28;20026;-67
2020/12/25 07:15:16;;;;;;;0.00;0.00;;;;;;;;;;4969422;28;20076;-68
2020/12/25 07:17:46;;;;;;;0.00;0.00;;;;;;;;;;4966662;28;20669;-67
2020/12/25 07:20:14;;;;;;;0.00;0.00;;;;;;;;;;4984954;28;20050;-69
2020/12/25 07:22:42;;;;;;;0.00;0.00;;;;;;;;;;4982175;28;20037;-68
2020/12/25 07:25:13;;;;;;;0.00;0.00;;;;;;;;;;4972683;28;20038;-68
2020/12/25 07:27:39;;;;;;;0.00;0.00;;;;;;;;;;4968613;28;20046;-68
2020/12/25 07:30:06;;;;;;;0.00;0.00;;;;;;;;;;4961433;28;20572;-68
2020/12/25 07:32:34;;;;;;;0.00;0.00;;;;;;;;;;4984210;28;20258;-67
2020/12/25 07:35:06;;;;;;;0.00;0.00;;;;;;;;;;4971924;28;20053;-67
2020/12/25 07:37:34;;;;;;;0.00;0.00;;;;;;;;;;4980309;28;20064;-68
2020/12/25 07:40:04;;;;;;;0.00;0.00;;;;;;;;;;4984060;28;20719;-68
2020/12/25 07:42:31;;;;;;;0.00;0.00;;;;;;;;;;4981797;28;20538;-67
2020/12/25 07:44:59;;;;;;;0.00;0.00;;;;;;;;;;4969527;28;20224;-67
2020/12/25 07:47:33;;;;;;;0.00;0.00;;;;;;;;;;4970199;28;20349;-67
2020/12/25 07:50:01;;;;;;;0.00;0.00;;;;;;;;;;4948943;28;20637;-67
2020/12/25 07:52:29;;;;;;;0.00;0.00;;;;;;;;;;4983132;28;20197;-67
2020/12/25 07:54:54;;;;;;;0.00;0.00;;;;;;;;;;4980876;28;20461;-67
2020/12/25 07:57:23;;;;;;;0.00;0.00;;;;;;;;;;4970383;28;20432;-67
2020/12/25 07:59:49;;;;;;;0.00;0.00;;;;;;;;;;4984112;28;20038;-67
2020/12/25 08:02:21;;;;;;;0.00;0.00;;;;;;;;;;4982378;28;20052;-67
2020/12/25 08:04:49;;;;;;;0.00;0.00;;;;;;;;;;4983519;28;20030;-67
2020/12/25 08:07:14;;;;;;;0.00;0.00;;;;;;;;;;4968436;28;20229;-68
2020/12/25 08:09:45;;;;;;;0.00;0.00;;;;;;;;;;4983755;28;20121;-67
2020/12/25 08:12:16;;;;;;;0.00;0.00;;;;;;;;;;4970420;28;20034;-67
2020/12/25 08:14:45;;;;;;;0.00;0.00;;;;;;;;;;4982339;28;20080;-67
2020/12/25 08:17:15;;;;;;;0.20;0.20;;;;;;;;;;4975921;28;21086;-66
2020/12/25 08:19:45;;;;;;;0.00;0.00;;;;;;;;;;4990183;28;20190;-66
2020/12/25 08:22:11;;;;;;;0.00;0.00;;;;;;;;;;4986659;28;20033;-66
2020/12/25 08:24:40;;;;;;;0.00;0.00;;;;;;;;;;4988806;28;20045;-66
2020/12/25 08:27:09;;;;;;;0.00;0.00;;;;;;;;;;4970853;28;20907;-66
2020/12/25 08:29:37;;;;;;;0.00;0.00;;;;;;;;;;4989929;28;20029;-66
2020/12/25 08:32:06;;;;;;;0.00;0.00;;;;;;;;;;4989833;28;20030;-64
2020/12/25 08:34:31;;;;;;;0.00;0.00;;;;;;;;;;4987891;28;20412;-66
2020/12/25 08:37:00;;;;;;;0.00;0.00;;;;;;;;;;4989355;28;20036;-64
2020/12/25 08:39:27;;;;;;;0.00;0.00;;;;;;;;;;4972985;28;20037;-65
2020/12/25 08:41:55;;;;;;;0.00;0.00;;;;;;;;;;4974908;28;20025;-65
2020/12/25 08:44:22;;;;;;;0.00;0.00;;;;;;;;;;4970591;28;20034;-65
2020/12/25 08:47:06;;;;;;;0.00;0.00;;;;;;;;;;4986989;28;20061;-67
2020/12/25 08:49:34;;;;;;;0.00;0.00;;;;;;;;;;4989197;28;20301;-67
2020/12/25 08:51:59;;;;;;;0.00;0.00;;;;;;;;;;4973858;28;20105;-68
2020/12/25 08:54:26;;;;;;;0.00;0.00;;;;;;;;;;4970260;28;20613;-68
2020/12/25 08:56:52;;;;;;;0.00;0.00;;;;;;;;;;4972286;28;20325;-68
2020/12/25 08:59:23;;;;;;;0.00;0.00;;;;;;;;;;4989291;28;20381;-68
2020/12/25 09:01:50;;;;;;;0.00;0.00;;;;;;;;;;4975732;28;20026;-68
2020/12/25 09:04:19;;;;;;;0.00;0.00;;;;;;;;;;4989036;28;20013;-68
2020/12/25 09:06:48;;;;;;;0.00;0.00;;;;;;;;;;4990523;28;20026;-68
2020/12/25 09:09:17;;;;;;;0.00;0.00;;;;;;;;;;4987166;28;20057;-69
2020/12/25 09:11:43;;;;;;;0.00;0.00;;;;;;;;;;4970943;28;20038;-68
2020/12/25 09:14:11;;;;;;;0.00;0.00;;;;;;;;;;4989422;28;20069;-68
2020/12/25 09:16:37;;;;;;;0.00;0.00;;;;;;;;;;4987749;28;20088;-62
2020/12/25 09:19:03;;;;;;;0.00;0.00;;;;;;;;;;4986730;28;20708;-67
2020/12/25 09:21:28;;;;;;;0.00;0.00;;;;;;;;;;4976022;28;20328;-67
2020/12/25 09:23:56;;;;;;;0.00;0.00;;;;;;;;;;4970605;28;20072;-67
2020/12/25 09:26:22;;;;;;;0.00;0.00;;;;;;;;;;4974171;28;20046;-66
2020/12/25 09:28:51;;;;;;;0.00;0.00;;;;;;;;;;4986195;28;20870;-68
2020/12/25 09:31:16;;;;;;;0.00;0.00;;;;;;;;;;4987867;28;20516;-68
2020/12/25 09:33:46;;;;;;;0.00;0.00;;;;;;;;;;4971620;28;20030;-67
2020/12/25 09:36:12;;;;;;;0.00;0.00;;;;;;;;;;4986952;28;20574;-67
2020/12/25 09:38:43;;;;;;;0.00;0.00;;;;;;;;;;4985851;28;20024;-68
2020/12/25 09:41:08;;;;;;;0.00;0.00;;;;;;;;;;4985178;28;20028;-68
2020/12/25 09:43:35;;;;;;;0.55;0.55;;;;;;;;;;4986190;28;20033;-67
2020/12/25 09:46:03;;;;;;;0.00;0.00;;;;;;;;;;4986913;28;20033;-68
2020/12/25 09:48:30;;;;;;;0.00;0.00;;;;;;;;;;4986379;28;20037;-68
2020/12/25 09:51:02;;;;;;;0.00;0.00;;;;;;;;;;4985264;28;20544;-69
2020/12/25 09:53:27;;;;;;;0.00;0.00;;;;;;;;;;4969880;28;20033;-67
2020/12/25 09:55:55;;;;;;;0.00;0.00;;;;;;;;;;4985001;28;20028;-68
2020/12/25 09:58:21;;;;;;;0.00;0.00;;;;;;;;;;4968916;28;20030;-67
2020/12/25 10:00:48;;;;;;;0.00;0.00;;;;;;;;;;4986383;28;20441;-67
2020/12/25 10:03:14;;;;;;;0.00;0.00;;;;;;;;;;4983717;28;20026;-67
2020/12/25 10:05:40;;;;;;;0.00;0.00;;;;;;;;;;4985358;28;20030;-68
2020/12/25 10:08:06;;;;;;;0.00;0.00;;;;;;;;;;4984617;28;20260;-67
2020/12/25 10:10:32;;;;;;;0.00;0.00;;;;;;;;;;4985220;28;20038;-68
2020/12/25 10:13:01;;;;;;;0.00;0.00;;;;;;;;;;4970888;28;20265;-67
2020/12/25 10:15:29;;;;;;;0.00;0.00;;;;;;;;;;4983950;28;21651;-67
2020/12/25 10:17:56;;;;;;;0.00;0.00;;;;;;;;;;4966520;28;20021;-66
2020/12/25 10:20:58;;;;;;;0.00;0.00;;;;;;;;;;4971483;28;20044;-67
2020/12/25 10:23:24;;;;;;;0.00;0.00;;;;;;;;;;4964596;28;20037;-66
2020/12/25 10:25:52;;;;;;;0.00;0.00;;;;;;;;;;4968763;28;20045;-66
2020/12/25 10:28:19;;;;;;;0.00;0.00;;;;;;;;;;4984665;28;20052;-66
2020/12/25 10:30:47;;;;;;;0.90;0.30;;;;;;;;;;4967809;28;20034;-66
2020/12/25 10:33:13;;;;;;;0.00;0.00;;;;;;;;;;4965576;28;20279;-66
2020/12/25 10:35:43;;;;;;;0.00;0.00;;;;;;;;;;4971779;28;20124;-66
2020/12/25 10:38:14;;;;;;;0.00;0.00;;;;;;;;;;4982486;28;20033;-66
2020/12/25 10:40:39;;;;;;;0.00;0.00;;;;;;;;;;4953606;28;20034;-66
2020/12/25 10:43:07;;;;;;;0.00;0.00;;;;;;;;;;4984491;28;20711;-66
2020/12/25 10:45:33;;;;;;;0.00;0.00;;;;;;;;;;4967372;28;20061;-66
2020/12/25 10:48:00;;;;;;;0.00;0.00;;;;;;;;;;4984525;28;20112;-66
2020/12/25 10:50:26;;;;;;;0.00;0.00;;;;;;;;;;4985559;28;20057;-66
2020/12/25 10:52:55;;;;;;;0.00;0.00;;;;;;;;;;4964802;28;20033;-66
2020/12/25 10:55:22;;;;;;;0.00;0.00;;;;;;;;;;4965746;28;20033;-66
2020/12/25 10:57:48;;;;;;;0.00;0.00;;;;;;;;;;4984401;28;20033;-66
2020/12/25 11:00:13;;;;;;;0.00;0.00;;;;;;;;;;4967191;28;20049;-66
2020/12/25 11:02:39;;;;;;;0.00;0.00;;;;;;;;;;4982205;28;20035;-66
2020/12/25 11:05:04;;;;;;;0.00;0.00;;;;;;;;;;4967274;28;20045;-66
2020/12/25 11:07:30;;;;;;;0.00;0.00;;;;;;;;;;4982689;28;20120;-66
2020/12/25 11:09:57;;;;;;;0.00;0.00;;;;;;;;;;4964836;28;20378;-66
2020/12/25 11:12:26;;;;;;;0.00;0.00;;;;;;;;;;4963605;28;20037;-66
2020/12/25 11:14:58;;;;;;;0.00;0.00;;;;;;;;;;4984716;28;21730;-67
2020/12/25 11:17:26;;;;;;;0.00;0.00;;;;;;;;;;4983508;28;20501;-65
2020/12/25 11:19:55;;;;;;;0.00;0.00;;;;;;;;;;4983644;28;20026;-66
2020/12/25 11:22:21;;;;;;;0.00;0.00;;;;;;;;;;4970849;28;20848;-65
2020/12/25 11:24:49;;;;;;;0.00;0.00;;;;;;;;;;4968534;28;20253;-66
2020/12/25 11:27:17;;;;;;;0.00;0.00;;;;;;;;;;4981019;28;20243;-66
2020/12/25 11:29:42;;;;;;;0.00;0.00;;;;;;;;;;4984691;28;20034;-66
2020/12/25 11:32:08;;;;;;;0.00;0.00;;;;;;;;;;4984170;28;20088;-66
2020/12/25 11:34:35;;;;;;;0.00;0.00;;;;;;;;;;4984804;28;20469;-66
2020/12/25 11:37:06;;;;;;;0.00;0.00;;;;;;;;;;4969652;28;20053;-67
2020/12/25 11:39:33;;;;;;;0.00;0.00;;;;;;;;;;4984766;28;20509;-67
2020/12/25 11:42:01;;;;;;;0.00;0.00;;;;;;;;;;4965859;28;20046;-66
2020/12/25 11:44:27;;;;;;;0.00;0.00;;;;;;;;;;4981120;28;20361;-66
2020/12/25 11:46:56;;;;;;;0.00;0.00;;;;;;;;;;4963713;28;20362;-64
2020/12/25 11:49:21;;;;;;;0.00;0.00;;;;;;;;;;4972754;28;20030;-66
2020/12/25 11:51:56;;;;;;;0.00;0.00;;;;;;;;;;4981525;28;20033;-66
2020/12/25 11:54:24;;;;;;;0.00;0.00;;;;;;;;;;4965961;28;20433;-66
2020/12/25 11:56:53;;;;;;;0.00;0.00;;;;;;;;;;4964501;28;20024;-66
2020/12/25 11:59:19;;;;;;;0.00;0.00;;;;;;;;;;4947029;28;20088;-65
2020/12/25 12:01:47;;;;;;;0.00;0.00;;;;;;;;;;4981126;28;22469;-66
2020/12/25 12:04:33;;;;;;;0.00;0.00;;;;;;;;;;4961973;28;20470;-66
2020/12/25 12:07:01;;;;;;;0.00;0.00;;;;;;;;;;4961301;28;20069;-67
2020/12/25 12:09:32;;;;;;;0.00;0.00;;;;;;;;;;4966955;28;20907;-66
2020/12/25 12:12:03;;;;;;;0.00;0.00;;;;;;;;;;4952952;28;20030;-67
2020/12/25 12:14:28;;;;;;;0.00;0.00;;;;;;;;;;4960210;28;20030;-66
2020/12/25 12:16:54;;;;;;;0.00;0.00;;;;;;;;;;4966855;28;20033;-66
2020/12/25 12:19:19;;;;;;;0.00;0.00;;;;;;;;;;4969916;28;20633;-66
2020/12/25 12:21:47;;;;;;;0.00;0.00;;;;;;;;;;4982451;28;20045;-66
2020/12/25 12:24:15;;;;;;;0.00;0.00;;;;;;;;;;4967383;28;20148;-65
2020/12/25 12:26:46;;;;;;;0.00;0.00;;;;;;;;;;4982715;28;20515;-66
2020/12/25 12:29:12;;;;;;;0.00;0.00;;;;;;;;;;4982298;28;20030;-67
2020/12/25 12:31:38;;;;;;;0.00;0.00;;;;;;;;;;4981409;28;20037;-67
2020/12/25 12:34:04;;;;;;;0.00;0.00;;;;;;;;;;4969261;28;20598;-67
2020/12/25 12:36:29;;;;;;;0.00;0.00;;;;;;;;;;4949730;28;20038;-67
2020/12/25 12:38:57;;;;;;;0.00;0.00;;;;;;;;;;4970064;28;20394;-66
2020/12/25 12:41:29;;;;;;;0.00;0.00;;;;;;;;;;4967389;28;20038;-67
2020/12/25 12:43:54;;;;;;;0.00;0.00;;;;;;;;;;4984805;28;20034;-67
2020/12/25 12:46:20;;;;;;;0.00;0.00;;;;;;;;;;4970544;28;20032;-67
2020/12/25 12:48:45;;;;;;;0.00;0.00;;;;;;;;;;4970310;28;20708;-68
2020/12/25 12:51:14;;;;;;;0.00;0.00;;;;;;;;;;4967928;28;20041;-68
2020/12/25 12:53:43;;;;;;;0.00;0.00;;;;;;;;;;4982096;28;20127;-68
2020/12/25 12:56:11;;;;;;;0.00;0.00;;;;;;;;;;4983453;28;20708;-68
2020/12/25 12:58:41;;;;;;;0.00;0.00;;;;;;;;;;4967798;28;20120;-68
2020/12/25 13:01:12;;;;;;;0.00;0.00;;;;;;;;;;4968226;28;20034;-68
2020/12/25 13:03:42;;;;;;;0.00;0.00;;;;;;;;;;4984856;28;20055;-69
2020/12/25 13:06:12;;;;;;;0.00;0.00;;;;;;;;;;4956750;28;20473;-68
2020/12/25 13:08:37;;;;;;;0.00;0.00;;;;;;;;;;4949904;28;20068;-69
2020/12/25 13:11:03;;;;;;;0.00;0.00;;;;;;;;;;4986086;28;20077;-68
2020/12/25 13:13:28;;;;;;;0.00;0.00;;;;;;;;;;4966269;28;20033;-68
2020/12/25 13:15:59;;;;;;;0.00;0.00;;;;;;;;;;4985945;28;20045;-67
2020/12/25 13:18:28;;;;;;;0.00;0.00;;;;;;;;;;4970004;28;20481;-68
2020/12/25 13:20:58;;;;;;;0.00;0.00;;;;;;;;;;4956800;28;20033;-68
2020/12/25 13:23:26;;;;;;;0.00;0.00;;;;;;;;;;4970635;28;20034;-68
2020/12/25 13:25:54;;;;;;;0.00;0.00;;;;;;;;;;4971390;28;20053;-69
2020/12/25 13:28:22;;;;;;;0.00;0.00;;;;;;;;;;4986593;28;20715;-70
2020/12/25 13:30:50;;;;;;;0.00;0.00;;;;;;;;;;4973791;28;20285;-69
2020/12/25 13:33:15;;;;;;;0.00;0.00;;;;;;;;;;4986028;28;20228;-69
2020/12/25 13:35:41;;;;;;;0.00;0.00;;;;;;;;;;4984591;28;20489;-68
2020/12/25 13:38:12;;;;;;;0.00;0.00;;;;;;;;;;4968629;28;20100;-69
2020/12/25 13:40:38;;;;;;;0.00;0.00;;;;;;;;;;4986293;28;20050;-69
2020/12/25 13:43:07;;;;;;;0.00;0.00;;;;;;;;;;4985995;28;20034;-69
2020/12/25 13:45:36;;;;;;;0.00;0.00;;;;;;;;;;4985962;28;20156;-69
2020/12/25 13:48:01;;;;;;;0.00;0.00;;;;;;;;;;4986190;28;20038;-69
2020/12/25 13:50:27;;;;;;;0.00;0.00;;;;;;;;;;4968121;28;20065;-69
2020/12/25 13:52:54;;;;;;;0.00;0.00;;;;;;;;;;4986494;28;20030;-70
2020/12/25 13:55:23;;;;;;;0.00;0.00;;;;;;;;;;4969402;28;20034;-69
2020/12/25 13:57:50;;;;;;;0.00;0.00;;;;;;;;;;4967756;28;20072;-68
2020/12/25 14:00:16;;;;;;;0.00;0.00;;;;;;;;;;4987849;28;20599;-69
2020/12/25 14:02:49;;;;;;;0.00;0.00;;;;;;;;;;4971120;28;20857;-69
2020/12/25 14:05:16;;;;;;;0.00;0.00;;;;;;;;;;4951412;28;20209;-69
2020/12/25 14:07:42;;;;;;;0.00;0.00;;;;;;;;;;4968229;28;20079;-69
2020/12/25 14:10:11;;;;;;;0.00;0.00;;;;;;;;;;4988323;28;20543;-69
2020/12/25 14:12:38;;;;;;;0.00;0.00;;;;;;;;;;4988392;28;20026;-69
2020/12/25 14:15:08;;;;;;;0.17;0.17;;;;;;;;;;4970441;28;20474;-70
2020/12/25 14:17:35;;;;;;;0.00;0.00;;;;;;;;;;4970150;28;20084;-70
2020/12/25 14:20:06;;;;;;;0.00;0.00;;;;;;;;;;5220765;23;20145;-64
2020/12/25 14:22:32;;;;;;;0.00;0.00;;;;;;;;;;4952372;28;21423;-64
2020/12/25 14:25:00;;;;;;;0.00;0.00;;;;;;;;;;4971607;28;20026;-65
2020/12/25 14:27:29;;;;;;;0.00;0.00;;;;;;;;;;4950866;28;20030;-64
2020/12/25 14:29:54;;;;;;;1.15;0.65;;;;;;;;;;4969870;28;20079;-64
2020/12/25 14:32:23;;;;;;;0.00;0.00;;;;;;;;;;4954244;28;20144;-65
2020/12/25 14:34:50;;;;;;;0.00;0.00;;;;;;;;;;4969110;28;20018;-65
2020/12/25 14:37:18;;;;;;;0.00;0.00;;;;;;;;;;4967830;28;20192;-65
2020/12/25 14:39:44;;;;;;;0.00;0.00;;;;;;;;;;4967001;28;20030;-65
2020/12/25 14:42:11;;;;;;;0.00;0.00;;;;;;;;;;4951133;28;20030;-64
2020/12/25 14:44:41;;;;;;;0.15;0.15;;;;;;;;;;4969914;28;20331;-66
2020/12/25 14:47:07;;;;;;;0.00;0.00;;;;;;;;;;4951057;28;20034;-64
2020/12/25 14:49:33;;;;;;;0.00;0.00;;;;;;;;;;4930593;28;20038;-66
2020/12/25 14:51:59;;;;;;;0.00;0.00;;;;;;;;;;4969442;28;20343;-65
2020/12/25 14:54:26;;;;;;;0.00;0.00;;;;;;;;;;4950989;28;20254;-65